sensor_id;sensor_type;location;lat;lon;timestamp;P1;P4;P2;P0;N10;N4;N25;N1;N05;TS
43196;SPS30;28816;49.852;18.282;2022-07-04T00:01:39;9.100000;;9.080000;8.620000;;;;;;
43196;SPS30;28816;49.852;18.282;2022-07-04T00:06:41;9.390000;;9.440000;8.870000;;;;;;
43196;SPS30;28816;49.852;18.282;2022-07-04T00:11:43;9.740000;;9.650000;9.310000;;;;;;
43196;SPS30;28816;49.852;18.282;2022-07-04T00:16:46;10.030000;;10.040000;9.410000;;;;;;
43196;SPS30;28816;49.852;18.282;2022-07-04T00:21:48;10.940000;;10.900000;10.320000;;;;;;
43196;SPS30;28816;49.852;18.282;2022-07-04T00:26:51;10.920000;;10.890000;10.360000;;;;;;
43196;SPS30;28816;49.852;18.282;2022-07-04T00:31:53;10.750000;;10.750000;10.150000;;;;;;
43196;SPS30;28816;49.852;18.282;2022-07-04T00:36:55;10.680000;;10.660000;10.100000;;;;;;
43196;SPS30;28816;49.852;18.282;2022-07-04T00:41:57;10.520000;;10.490000;9.950000;;;;;;
43196;SPS30;28816;49.852;18.282;2022-07-04T00:46:59;11.000000;;10.940000;10.220000;;;;;;
43196;SPS30;28816;49.852;18.282;2022-07-04T00:52:02;11.020000;;11.040000;10.480000;;;;;;
43196;SPS30;28816;49.852;18.282;2022-07-04T00:57:05;10.570000;;10.480000;10.050000;;;;;;
43196;SPS30;28816;49.852;18.282;2022-07-04T01:02:07;11.380000;;11.400000;10.730000;;;;;;
43196;SPS30;28816;49.852;18.282;2022-07-04T01:07:09;11.200000;;11.160000;10.560000;;;;;;
43196;SPS30;28816;49.852;18.282;2022-07-04T01:12:11;11.840000;;11.810000;10.950000;;;;;;
43196;SPS30;28816;49.852;18.282;2022-07-04T01:17:23;13.250000;;13.020000;11.890000;;;;;;
43196;SPS30;28816;49.852;18.282;2022-07-04T01:22:26;14.180000;;14.180000;13.400000;;;;;;
43196;SPS30;28816;49.852;18.282;2022-07-04T01:27:27;13.970000;;13.890000;12.860000;;;;;;
43196;SPS30;28816;49.852;18.282;2022-07-04T01:32:29;12.750000;;12.560000;11.740000;;;;;;
43196;SPS30;28816;49.852;18.282;2022-07-04T01:37:31;11.360000;;11.370000;10.760000;;;;;;
43196;SPS30;28816;49.852;18.282;2022-07-04T01:42:33;11.340000;;11.400000;10.720000;;;;;;
43196;SPS30;28816;49.852;18.282;2022-07-04T01:47:34;11.080000;;11.160000;10.400000;;;;;;
43196;SPS30;28816;49.852;18.282;2022-07-04T01:52:37;12.120000;;11.950000;11.110000;;;;;;
43196;SPS30;28816;49.852;18.282;2022-07-04T01:57:40;12.050000;;12.020000;11.370000;;;;;;
43196;SPS30;28816;49.852;18.282;2022-07-04T02:02:43;12.600000;;12.650000;11.940000;;;;;;
43196;SPS30;28816;49.852;18.282;2022-07-04T02:07:45;12.640000;;12.550000;11.750000;;;;;;
43196;SPS30;28816;49.852;18.282;2022-07-04T02:12:47;12.700000;;12.650000;11.930000;;;;;;
43196;SPS30;28816;49.852;18.282;2022-07-04T02:17:48;12.350000;;12.420000;11.590000;;;;;;
43196;SPS30;28816;49.852;18.282;2022-07-04T02:22:51;12.240000;;12.300000;11.530000;;;;;;
43196;SPS30;28816;49.852;18.282;2022-07-04T02:27:53;12.620000;;12.520000;11.760000;;;;;;
43196;SPS30;28816;49.852;18.282;2022-07-04T02:32:55;12.320000;;12.310000;11.600000;;;;;;
43196;SPS30;28816;49.852;18.282;2022-07-04T02:37:58;13.740000;;13.630000;12.870000;;;;;;
43196;SPS30;28816;49.852;18.282;2022-07-04T02:43:00;12.660000;;12.640000;11.960000;;;;;;
43196;SPS30;28816;49.852;18.282;2022-07-04T02:48:02;12.330000;;12.240000;11.750000;;;;;;
43196;SPS30;28816;49.852;18.282;2022-07-04T02:53:05;13.580000;;13.590000;12.740000;;;;;;
43196;SPS30;28816;49.852;18.282;2022-07-04T02:58:07;14.100000;;14.140000;13.300000;;;;;;
43196;SPS30;28816;49.852;18.282;2022-07-04T03:03:09;15.120000;;15.140000;14.270000;;;;;;
43196;SPS30;28816;49.852;18.282;2022-07-04T03:08:11;13.410000;;13.300000;12.480000;;;;;;
43196;SPS30;28816;49.852;18.282;2022-07-04T03:13:13;12.830000;;12.850000;12.020000;;;;;;
43196;SPS30;28816;49.852;18.282;2022-07-04T03:18:15;12.450000;;12.300000;11.710000;;;;;;
43196;SPS30;28816;49.852;18.282;2022-07-04T03:23:17;12.610000;;12.480000;11.730000;;;;;;
43196;SPS30;28816;49.852;18.282;2022-07-04T03:28:19;12.260000;;12.220000;11.580000;;;;;;
43196;SPS30;28816;49.852;18.282;2022-07-04T03:33:21;12.810000;;12.750000;11.770000;;;;;;
43196;SPS30;28816;49.852;18.282;2022-07-04T03:38:22;12.540000;;12.520000;11.910000;;;;;;
43196;SPS30;28816;49.852;18.282;2022-07-04T03:43:25;12.700000;;12.540000;11.700000;;;;;;
43196;SPS30;28816;49.852;18.282;2022-07-04T03:48:26;11.810000;;11.830000;11.110000;;;;;;
43196;SPS30;28816;49.852;18.282;2022-07-04T03:53:29;12.230000;;12.340000;11.510000;;;;;;
43196;SPS30;28816;49.852;18.282;2022-07-04T03:58:31;13.010000;;12.890000;11.880000;;;;;;
43196;SPS30;28816;49.852;18.282;2022-07-04T04:03:33;12.170000;;12.120000;11.510000;;;;;;
43196;SPS30;28816;49.852;18.282;2022-07-04T04:08:36;11.890000;;11.710000;10.890000;;;;;;
43196;SPS30;28816;49.852;18.282;2022-07-04T04:13:38;12.030000;;12.060000;11.260000;;;;;;
43196;SPS30;28816;49.852;18.282;2022-07-04T04:18:40;11.390000;;11.390000;10.740000;;;;;;
43196;SPS30;28816;49.852;18.282;2022-07-04T04:23:42;11.870000;;11.820000;11.260000;;;;;;
43196;SPS30;28816;49.852;18.282;2022-07-04T04:28:44;12.130000;;12.100000;11.370000;;;;;;
43196;SPS30;28816;49.852;18.282;2022-07-04T04:33:46;10.700000;;10.550000;9.900000;;;;;;
43196;SPS30;28816;49.852;18.282;2022-07-04T04:38:49;12.500000;;12.630000;11.750000;;;;;;
43196;SPS30;28816;49.852;18.282;2022-07-04T04:43:51;14.520000;;14.480000;13.760000;;;;;;
43196;SPS30;28816;49.852;18.282;2022-07-04T04:48:52;15.180000;;15.180000;14.380000;;;;;;
43196;SPS30;28816;49.852;18.282;2022-07-04T04:53:55;14.240000;;14.270000;13.400000;;;;;;
43196;SPS30;28816;49.852;18.282;2022-07-04T04:58:57;14.910000;;14.780000;14.000000;;;;;;
43196;SPS30;28816;49.852;18.282;2022-07-04T05:04:00;13.940000;;13.860000;13.260000;;;;;;
43196;SPS30;28816;49.852;18.282;2022-07-04T05:09:02;14.400000;;14.410000;13.630000;;;;;;
43196;SPS30;28816;49.852;18.282;2022-07-04T05:14:05;13.680000;;13.640000;12.970000;;;;;;
43196;SPS30;28816;49.852;18.282;2022-07-04T05:19:08;12.230000;;12.300000;11.480000;;;;;;
43196;SPS30;28816;49.852;18.282;2022-07-04T05:24:10;10.400000;;10.470000;9.850000;;;;;;
43196;SPS30;28816;49.852;18.282;2022-07-04T05:29:12;10.970000;;10.940000;10.350000;;;;;;
43196;SPS30;28816;49.852;18.282;2022-07-04T05:34:15;11.150000;;11.180000;10.440000;;;;;;
43196;SPS30;28816;49.852;18.282;2022-07-04T05:39:17;11.910000;;11.860000;11.290000;;;;;;
43196;SPS30;28816;49.852;18.282;2022-07-04T05:44:19;11.190000;;11.180000;10.540000;;;;;;
43196;SPS30;28816;49.852;18.282;2022-07-04T05:49:21;11.170000;;11.180000;10.580000;;;;;;
43196;SPS30;28816;49.852;18.282;2022-07-04T05:54:23;9.270000;;9.140000;8.550000;;;;;;
43196;SPS30;28816;49.852;18.282;2022-07-04T05:59:26;9.060000;;9.050000;8.540000;;;;;;
43196;SPS30;28816;49.852;18.282;2022-07-04T06:04:28;8.620000;;8.620000;8.160000;;;;;;
43196;SPS30;28816;49.852;18.282;2022-07-04T06:09:30;8.960000;;9.000000;8.380000;;;;;;
43196;SPS30;28816;49.852;18.282;2022-07-04T06:14:32;9.500000;;9.530000;8.980000;;;;;;
43196;SPS30;28816;49.852;18.282;2022-07-04T06:19:35;8.410000;;8.390000;7.930000;;;;;;
43196;SPS30;28816;49.852;18.282;2022-07-04T06:24:37;9.040000;;9.090000;8.560000;;;;;;
43196;SPS30;28816;49.852;18.282;2022-07-04T06:29:40;9.060000;;9.010000;8.640000;;;;;;
43196;SPS30;28816;49.852;18.282;2022-07-04T06:34:42;8.530000;;8.520000;8.110000;;;;;;
43196;SPS30;28816;49.852;18.282;2022-07-04T06:39:45;7.140000;;7.140000;6.750000;;;;;;
43196;SPS30;28816;49.852;18.282;2022-07-04T06:44:46;8.190000;;8.120000;7.800000;;;;;;
43196;SPS30;28816;49.852;18.282;2022-07-04T06:49:48;7.650000;;7.660000;7.220000;;;;;;
43196;SPS30;28816;49.852;18.282;2022-07-04T06:54:51;7.880000;;7.840000;7.470000;;;;;;
43196;SPS30;28816;49.852;18.282;2022-07-04T06:59:53;8.930000;;8.990000;8.400000;;;;;;
43196;SPS30;28816;49.852;18.282;2022-07-04T07:04:55;8.740000;;8.730000;8.290000;;;;;;
43196;SPS30;28816;49.852;18.282;2022-07-04T07:09:57;8.070000;;8.080000;7.640000;;;;;;
43196;SPS30;28816;49.852;18.282;2022-07-04T07:15:00;7.380000;;7.410000;6.960000;;;;;;
43196;SPS30;28816;49.852;18.282;2022-07-04T07:20:02;7.810000;;7.810000;7.380000;;;;;;
43196;SPS30;28816;49.852;18.282;2022-07-04T07:25:05;8.370000;;8.380000;7.890000;;;;;;
43196;SPS30;28816;49.852;18.282;2022-07-04T07:30:09;6.890000;;6.880000;6.530000;;;;;;
43196;SPS30;28816;49.852;18.282;2022-07-04T07:35:11;7.230000;;7.210000;6.860000;;;;;;
43196;SPS30;28816;49.852;18.282;2022-07-04T07:40:13;6.510000;;6.550000;6.120000;;;;;;
43196;SPS30;28816;49.852;18.282;2022-07-04T07:45:15;6.320000;;6.290000;5.990000;;;;;;
43196;SPS30;28816;49.852;18.282;2022-07-04T07:50:17;5.850000;;5.860000;5.530000;;;;;;
43196;SPS30;28816;49.852;18.282;2022-07-04T07:55:20;5.320000;;5.290000;5.060000;;;;;;
43196;SPS30;28816;49.852;18.282;2022-07-04T08:00:22;5.260000;;5.260000;4.940000;;;;;;
43196;SPS30;28816;49.852;18.282;2022-07-04T08:05:25;4.770000;;4.810000;4.450000;;;;;;
43196;SPS30;28816;49.852;18.282;2022-07-04T08:10:27;4.710000;;4.710000;4.440000;;;;;;
43196;SPS30;28816;49.852;18.282;2022-07-04T08:15:30;4.560000;;4.550000;4.290000;;;;;;
43196;SPS30;28816;49.852;18.282;2022-07-04T08:20:32;3.760000;;3.750000;3.550000;;;;;;
43196;SPS30;28816;49.852;18.282;2022-07-04T08:25:35;3.590000;;3.570000;3.420000;;;;;;
43196;SPS30;28816;49.852;18.282;2022-07-04T08:30:37;3.590000;;3.590000;3.420000;;;;;;
43196;SPS30;28816;49.852;18.282;2022-07-04T08:35:39;4.610000;;4.550000;4.400000;;;;;;
43196;SPS30;28816;49.852;18.282;2022-07-04T08:40:41;4.520000;;4.520000;4.260000;;;;;;
43196;SPS30;28816;49.852;18.282;2022-07-04T08:45:43;3.980000;;3.940000;3.820000;;;;;;
43196;SPS30;28816;49.852;18.282;2022-07-04T08:50:47;3.940000;;3.970000;3.700000;;;;;;
43196;SPS30;28816;49.852;18.282;2022-07-04T08:55:51;3.270000;;3.290000;3.060000;;;;;;
43196;SPS30;28816;49.852;18.282;2022-07-04T09:00:54;3.840000;;3.830000;3.650000;;;;;;
43196;SPS30;28816;49.852;18.282;2022-07-04T09:05:58;3.240000;;3.240000;3.070000;;;;;;
43196;SPS30;28816;49.852;18.282;2022-07-04T09:11:00;3.380000;;3.330000;3.230000;;;;;;
43196;SPS30;28816;49.852;18.282;2022-07-04T09:16:02;3.430000;;3.450000;3.230000;;;;;;
43196;SPS30;28816;49.852;18.282;2022-07-04T09:21:05;3.380000;;3.430000;3.170000;;;;;;
43196;SPS30;28816;49.852;18.282;2022-07-04T09:26:08;3.200000;;3.210000;3.070000;;;;;;
43196;SPS30;28816;49.852;18.282;2022-07-04T09:31:12;3.450000;;3.470000;3.230000;;;;;;
43196;SPS30;28816;49.852;18.282;2022-07-04T09:36:15;2.840000;;2.840000;2.690000;;;;;;
43196;SPS30;28816;49.852;18.282;2022-07-04T09:41:19;3.510000;;3.630000;3.250000;;;;;;
43196;SPS30;28816;49.852;18.282;2022-07-04T09:46:21;3.480000;;3.450000;3.300000;;;;;;
43196;SPS30;28816;49.852;18.282;2022-07-04T09:51:23;4.020000;;4.020000;3.770000;;;;;;
43196;SPS30;28816;49.852;18.282;2022-07-04T09:56:36;3.210000;;3.190000;3.080000;;;;;;
43196;SPS30;28816;49.852;18.282;2022-07-04T10:01:39;3.760000;;3.810000;3.510000;;;;;;
43196;SPS30;28816;49.852;18.282;2022-07-04T10:06:41;4.090000;;4.080000;3.880000;;;;;;
43196;SPS30;28816;49.852;18.282;2022-07-04T10:11:44;3.900000;;3.940000;3.640000;;;;;;
43196;SPS30;28816;49.852;18.282;2022-07-04T10:16:47;4.790000;;4.780000;4.530000;;;;;;
43196;SPS30;28816;49.852;18.282;2022-07-04T10:21:48;3.460000;;3.510000;3.210000;;;;;;
43196;SPS30;28816;49.852;18.282;2022-07-04T10:26:51;3.810000;;3.820000;3.570000;;;;;;
43196;SPS30;28816;49.852;18.282;2022-07-04T10:31:53;3.990000;;4.010000;3.760000;;;;;;
43196;SPS30;28816;49.852;18.282;2022-07-04T10:36:56;3.490000;;3.470000;3.300000;;;;;;
43196;SPS30;28816;49.852;18.282;2022-07-04T10:41:58;3.450000;;3.510000;3.170000;;;;;;
43196;SPS30;28816;49.852;18.282;2022-07-04T10:47:00;3.500000;;3.490000;3.310000;;;;;;
43196;SPS30;28816;49.852;18.282;2022-07-04T10:52:04;3.280000;;3.270000;3.090000;;;;;;
43196;SPS30;28816;49.852;18.282;2022-07-04T10:57:10;3.730000;;3.750000;3.500000;;;;;;
43196;SPS30;28816;49.852;18.282;2022-07-04T11:02:14;3.710000;;3.680000;3.530000;;;;;;
43196;SPS30;28816;49.852;18.282;2022-07-04T11:07:25;4.100000;;4.090000;3.900000;;;;;;
43196;SPS30;28816;49.852;18.282;2022-07-04T11:12:59;3.590000;;3.560000;3.390000;;;;;;
43196;SPS30;28816;49.852;18.282;2022-07-04T11:18:07;3.080000;;3.040000;2.930000;;;;;;
43196;SPS30;28816;49.852;18.282;2022-07-04T11:23:10;3.410000;;3.430000;3.190000;;;;;;
43196;SPS30;28816;49.852;18.282;2022-07-04T11:28:13;2.510000;;2.550000;2.350000;;;;;;
43196;SPS30;28816;49.852;18.282;2022-07-04T11:33:19;3.280000;;3.300000;3.070000;;;;;;
43196;SPS30;28816;49.852;18.282;2022-07-04T11:38:22;3.720000;;3.680000;3.550000;;;;;;
43196;SPS30;28816;49.852;18.282;2022-07-04T11:43:24;4.430000;;4.380000;4.240000;;;;;;
43196;SPS30;28816;49.852;18.282;2022-07-04T11:48:26;3.950000;;3.990000;3.730000;;;;;;
43196;SPS30;28816;49.852;18.282;2022-07-04T11:53:29;3.830000;;3.850000;3.620000;;;;;;
43196;SPS30;28816;49.852;18.282;2022-07-04T11:58:31;3.210000;;3.140000;3.080000;;;;;;
43196;SPS30;28816;49.852;18.282;2022-07-04T12:03:38;2.670000;;2.650000;2.530000;;;;;;
43196;SPS30;28816;49.852;18.282;2022-07-04T12:08:40;2.940000;;2.900000;2.830000;;;;;;
43196;SPS30;28816;49.852;18.282;2022-07-04T12:13:43;2.820000;;2.820000;2.690000;;;;;;
43196;SPS30;28816;49.852;18.282;2022-07-04T12:18:45;2.700000;;2.700000;2.540000;;;;;;
43196;SPS30;28816;49.852;18.282;2022-07-04T12:23:48;3.400000;;3.370000;3.230000;;;;;;
43196;SPS30;28816;49.852;18.282;2022-07-04T12:28:51;3.510000;;3.510000;3.310000;;;;;;
43196;SPS30;28816;49.852;18.282;2022-07-04T12:33:53;2.970000;;2.990000;2.770000;;;;;;
43196;SPS30;28816;49.852;18.282;2022-07-04T12:38:55;3.030000;;3.020000;2.870000;;;;;;
43196;SPS30;28816;49.852;18.282;2022-07-04T12:43:58;3.600000;;3.600000;3.390000;;;;;;
43196;SPS30;28816;49.852;18.282;2022-07-04T12:49:00;2.720000;;2.730000;2.550000;;;;;;
43196;SPS30;28816;49.852;18.282;2022-07-04T12:54:02;10.180000;;10.200000;9.580000;;;;;;
43196;SPS30;28816;49.852;18.282;2022-07-04T12:59:06;2.930000;;2.880000;2.790000;;;;;;
43196;SPS30;28816;49.852;18.282;2022-07-04T13:04:10;2.610000;;2.620000;2.460000;;;;;;
43196;SPS30;28816;49.852;18.282;2022-07-04T13:09:12;2.020000;;2.020000;1.920000;;;;;;
43196;SPS30;28816;49.852;18.282;2022-07-04T13:14:14;2.730000;;2.730000;2.570000;;;;;;
43196;SPS30;28816;49.852;18.282;2022-07-04T13:19:16;2.840000;;2.820000;2.690000;;;;;;
43196;SPS30;28816;49.852;18.282;2022-07-04T13:24:18;2.770000;;2.800000;2.600000;;;;;;
43196;SPS30;28816;49.852;18.282;2022-07-04T13:29:21;2.910000;;2.890000;2.780000;;;;;;
43196;SPS30;28816;49.852;18.282;2022-07-04T13:34:23;2.740000;;2.750000;2.560000;;;;;;
43196;SPS30;28816;49.852;18.282;2022-07-04T13:39:26;2.140000;;2.110000;2.060000;;;;;;
43196;SPS30;28816;49.852;18.282;2022-07-04T13:44:28;2.580000;;2.540000;2.480000;;;;;;
43196;SPS30;28816;49.852;18.282;2022-07-04T13:49:31;2.900000;;2.880000;2.750000;;;;;;
43196;SPS30;28816;49.852;18.282;2022-07-04T13:54:33;2.490000;;2.500000;2.340000;;;;;;
43196;SPS30;28816;49.852;18.282;2022-07-04T13:59:35;2.520000;;2.510000;2.430000;;;;;;
43196;SPS30;28816;49.852;18.282;2022-07-04T14:04:37;2.700000;;2.700000;2.530000;;;;;;
43196;SPS30;28816;49.852;18.282;2022-07-04T14:09:39;2.440000;;2.440000;2.310000;;;;;;
43196;SPS30;28816;49.852;18.282;2022-07-04T14:14:41;2.300000;;2.320000;2.170000;;;;;;
43196;SPS30;28816;49.852;18.282;2022-07-04T14:19:43;1.840000;;1.850000;1.730000;;;;;;
43196;SPS30;28816;49.852;18.282;2022-07-04T14:24:46;2.240000;;2.220000;2.100000;;;;;;
43196;SPS30;28816;49.852;18.282;2022-07-04T14:29:48;2.450000;;2.420000;2.330000;;;;;;
43196;SPS30;28816;49.852;18.282;2022-07-04T14:34:51;2.070000;;2.080000;1.940000;;;;;;
43196;SPS30;28816;49.852;18.282;2022-07-04T14:44:54;1.690000;;1.750000;1.540000;;;;;;
43196;SPS30;28816;49.852;18.282;2022-07-04T14:49:57;2.250000;;2.230000;2.130000;;;;;;
43196;SPS30;28816;49.852;18.282;2022-07-04T14:55:00;1.680000;;1.700000;1.580000;;;;;;
43196;SPS30;28816;49.852;18.282;2022-07-04T15:00:02;2.070000;;2.060000;1.960000;;;;;;
43196;SPS30;28816;49.852;18.282;2022-07-04T15:05:05;2.680000;;2.680000;2.540000;;;;;;
43196;SPS30;28816;49.852;18.282;2022-07-04T15:10:07;1.970000;;1.950000;1.890000;;;;;;
43196;SPS30;28816;49.852;18.282;2022-07-04T15:15:09;1.950000;;1.950000;1.840000;;;;;;
43196;SPS30;28816;49.852;18.282;2022-07-04T15:20:11;2.200000;;2.160000;2.090000;;;;;;
43196;SPS30;28816;49.852;18.282;2022-07-04T15:25:14;2.320000;;2.340000;2.190000;;;;;;
43196;SPS30;28816;49.852;18.282;2022-07-04T15:30:16;2.150000;;2.130000;2.040000;;;;;;
43196;SPS30;28816;49.852;18.282;2022-07-04T15:35:19;1.830000;;1.860000;1.710000;;;;;;
43196;SPS30;28816;49.852;18.282;2022-07-04T15:40:21;1.910000;;1.940000;1.800000;;;;;;
43196;SPS30;28816;49.852;18.282;2022-07-04T15:45:23;1.640000;;1.630000;1.550000;;;;;;
43196;SPS30;28816;49.852;18.282;2022-07-04T15:50:26;2.070000;;2.060000;1.980000;;;;;;
43196;SPS30;28816;49.852;18.282;2022-07-04T15:55:28;1.980000;;1.950000;1.920000;;;;;;
43196;SPS30;28816;49.852;18.282;2022-07-04T16:00:31;1.770000;;1.750000;1.690000;;;;;;
43196;SPS30;28816;49.852;18.282;2022-07-04T16:05:33;2.160000;;2.160000;2.030000;;;;;;
43196;SPS30;28816;49.852;18.282;2022-07-04T16:10:35;2.790000;;2.790000;2.620000;;;;;;
43196;SPS30;28816;49.852;18.282;2022-07-04T16:15:38;2.130000;;2.190000;1.970000;;;;;;
43196;SPS30;28816;49.852;18.282;2022-07-04T16:20:40;1.760000;;1.790000;1.660000;;;;;;
43196;SPS30;28816;49.852;18.282;2022-07-04T16:25:42;2.040000;;2.050000;1.920000;;;;;;
43196;SPS30;28816;49.852;18.282;2022-07-04T16:30:45;1.820000;;1.780000;1.740000;;;;;;
43196;SPS30;28816;49.852;18.282;2022-07-04T16:35:47;2.820000;;2.810000;2.670000;;;;;;
43196;SPS30;28816;49.852;18.282;2022-07-04T16:40:49;3.000000;;2.970000;2.850000;;;;;;
43196;SPS30;28816;49.852;18.282;2022-07-04T16:45:52;2.080000;;2.070000;1.960000;;;;;;
43196;SPS30;28816;49.852;18.282;2022-07-04T16:50:54;2.320000;;2.310000;2.180000;;;;;;
43196;SPS30;28816;49.852;18.282;2022-07-04T16:55:56;2.390000;;2.390000;2.240000;;;;;;
43196;SPS30;28816;49.852;18.282;2022-07-04T17:00:58;2.370000;;2.370000;2.240000;;;;;;
43196;SPS30;28816;49.852;18.282;2022-07-04T17:06:01;1.880000;;1.860000;1.780000;;;;;;
43196;SPS30;28816;49.852;18.282;2022-07-04T17:11:03;2.230000;;2.230000;2.140000;;;;;;
43196;SPS30;28816;49.852;18.282;2022-07-04T17:16:05;3.020000;;2.990000;2.890000;;;;;;
43196;SPS30;28816;49.852;18.282;2022-07-04T17:21:08;3.240000;;3.220000;3.080000;;;;;;
43196;SPS30;28816;49.852;18.282;2022-07-04T17:26:10;4.170000;;4.150000;3.920000;;;;;;
43196;SPS30;28816;49.852;18.282;2022-07-04T17:31:12;3.290000;;3.290000;3.120000;;;;;;
43196;SPS30;28816;49.852;18.282;2022-07-04T17:36:15;2.990000;;3.000000;2.840000;;;;;;
43196;SPS30;28816;49.852;18.282;2022-07-04T17:41:17;2.740000;;2.700000;2.600000;;;;;;
43196;SPS30;28816;49.852;18.282;2022-07-04T17:46:19;2.830000;;2.810000;2.700000;;;;;;
43196;SPS30;28816;49.852;18.282;2022-07-04T17:51:21;2.810000;;2.810000;2.650000;;;;;;
43196;SPS30;28816;49.852;18.282;2022-07-04T17:56:24;2.990000;;2.990000;2.820000;;;;;;
43196;SPS30;28816;49.852;18.282;2022-07-04T18:01:26;2.640000;;2.630000;2.520000;;;;;;
43196;SPS30;28816;49.852;18.282;2022-07-04T18:06:29;2.680000;;2.700000;2.510000;;;;;;
43196;SPS30;28816;49.852;18.282;2022-07-04T18:11:31;3.620000;;3.600000;3.460000;;;;;;
43196;SPS30;28816;49.852;18.282;2022-07-04T18:16:33;3.410000;;3.410000;3.190000;;;;;;
43196;SPS30;28816;49.852;18.282;2022-07-04T18:21:36;3.660000;;3.680000;3.470000;;;;;;
43196;SPS30;28816;49.852;18.282;2022-07-04T18:26:38;3.260000;;3.260000;3.070000;;;;;;
43196;SPS30;28816;49.852;18.282;2022-07-04T18:31:41;3.660000;;3.680000;3.450000;;;;;;
43196;SPS30;28816;49.852;18.282;2022-07-04T18:36:48;3.350000;;3.320000;3.180000;;;;;;
43196;SPS30;28816;49.852;18.282;2022-07-04T18:41:50;3.480000;;3.440000;3.320000;;;;;;
43196;SPS30;28816;49.852;18.282;2022-07-04T18:46:53;3.010000;;2.980000;2.880000;;;;;;
43196;SPS30;28816;49.852;18.282;2022-07-04T18:51:55;3.550000;;3.560000;3.350000;;;;;;
43196;SPS30;28816;49.852;18.282;2022-07-04T18:56:57;3.330000;;3.350000;3.120000;;;;;;
43196;SPS30;28816;49.852;18.282;2022-07-04T19:02:00;4.370000;;4.360000;4.140000;;;;;;
43196;SPS30;28816;49.852;18.282;2022-07-04T19:07:02;3.950000;;3.950000;3.740000;;;;;;
43196;SPS30;28816;49.852;18.282;2022-07-04T19:12:04;4.560000;;4.580000;4.270000;;;;;;
43196;SPS30;28816;49.852;18.282;2022-07-04T19:17:07;4.270000;;4.300000;4.000000;;;;;;
43196;SPS30;28816;49.852;18.282;2022-07-04T19:22:09;4.130000;;4.100000;3.930000;;;;;;
43196;SPS30;28816;49.852;18.282;2022-07-04T19:27:12;4.210000;;4.200000;4.020000;;;;;;
43196;SPS30;28816;49.852;18.282;2022-07-04T19:32:14;4.010000;;4.000000;3.790000;;;;;;
43196;SPS30;28816;49.852;18.282;2022-07-04T19:37:16;4.380000;;4.310000;4.210000;;;;;;
43196;SPS30;28816;49.852;18.282;2022-07-04T19:42:18;4.190000;;4.210000;3.960000;;;;;;
43196;SPS30;28816;49.852;18.282;2022-07-04T19:47:21;3.910000;;3.920000;3.700000;;;;;;
43196;SPS30;28816;49.852;18.282;2022-07-04T19:52:23;4.720000;;4.710000;4.470000;;;;;;
43196;SPS30;28816;49.852;18.282;2022-07-04T19:57:25;4.250000;;4.240000;4.030000;;;;;;
43196;SPS30;28816;49.852;18.282;2022-07-04T20:02:28;4.010000;;4.060000;3.750000;;;;;;
43196;SPS30;28816;49.852;18.282;2022-07-04T20:07:30;4.040000;;4.080000;3.800000;;;;;;
43196;SPS30;28816;49.852;18.282;2022-07-04T20:12:32;3.460000;;3.460000;3.280000;;;;;;
43196;SPS30;28816;49.852;18.282;2022-07-04T20:17:35;4.610000;;4.620000;4.330000;;;;;;
43196;SPS30;28816;49.852;18.282;2022-07-04T20:22:37;4.760000;;4.760000;4.490000;;;;;;
43196;SPS30;28816;49.852;18.282;2022-07-04T20:27:39;3.710000;;3.670000;3.550000;;;;;;
43196;SPS30;28816;49.852;18.282;2022-07-04T20:32:42;3.760000;;3.810000;3.510000;;;;;;
43196;SPS30;28816;49.852;18.282;2022-07-04T20:37:45;4.380000;;4.380000;4.120000;;;;;;
43196;SPS30;28816;49.852;18.282;2022-07-04T20:42:47;3.460000;;3.510000;3.240000;;;;;;
43196;SPS30;28816;49.852;18.282;2022-07-04T20:47:49;5.010000;;4.940000;4.770000;;;;;;
43196;SPS30;28816;49.852;18.282;2022-07-04T20:52:51;4.720000;;4.770000;4.410000;;;;;;
43196;SPS30;28816;49.852;18.282;2022-07-04T20:57:54;5.080000;;5.080000;4.810000;;;;;;
43196;SPS30;28816;49.852;18.282;2022-07-04T21:02:56;5.320000;;5.360000;5.010000;;;;;;
43196;SPS30;28816;49.852;18.282;2022-07-04T21:07:59;5.970000;;5.930000;5.650000;;;;;;
43196;SPS30;28816;49.852;18.282;2022-07-04T21:13:01;6.090000;;6.090000;5.780000;;;;;;
43196;SPS30;28816;49.852;18.282;2022-07-04T21:18:03;5.780000;;5.770000;5.470000;;;;;;
43196;SPS30;28816;49.852;18.282;2022-07-04T21:23:06;5.600000;;5.630000;5.260000;;;;;;
43196;SPS30;28816;49.852;18.282;2022-07-04T21:28:07;5.690000;;5.710000;5.380000;;;;;;
43196;SPS30;28816;49.852;18.282;2022-07-04T21:33:09;6.110000;;6.070000;5.800000;;;;;;
43196;SPS30;28816;49.852;18.282;2022-07-04T21:38:11;5.120000;;5.100000;4.850000;;;;;;
43196;SPS30;28816;49.852;18.282;2022-07-04T21:43:13;5.190000;;5.080000;5.000000;;;;;;
43196;SPS30;28816;49.852;18.282;2022-07-04T21:48:16;5.980000;;6.080000;5.560000;;;;;;
43196;SPS30;28816;49.852;18.282;2022-07-04T21:53:17;5.720000;;5.720000;5.410000;;;;;;
43196;SPS30;28816;49.852;18.282;2022-07-04T21:58:20;6.200000;;6.160000;5.890000;;;;;;
43196;SPS30;28816;49.852;18.282;2022-07-04T22:03:22;5.460000;;5.430000;5.210000;;;;;;
43196;SPS30;28816;49.852;18.282;2022-07-04T22:08:25;4.740000;;4.770000;4.470000;;;;;;
43196;SPS30;28816;49.852;18.282;2022-07-04T22:13:27;4.960000;;4.960000;4.720000;;;;;;
43196;SPS30;28816;49.852;18.282;2022-07-04T22:18:29;3.860000;;3.820000;3.690000;;;;;;
43196;SPS30;28816;49.852;18.282;2022-07-04T22:23:32;4.190000;;4.170000;3.980000;;;;;;
43196;SPS30;28816;49.852;18.282;2022-07-04T22:28:34;4.170000;;4.180000;3.940000;;;;;;
43196;SPS30;28816;49.852;18.282;2022-07-04T22:34:27;5.170000;;5.130000;4.900000;;;;;;
43196;SPS30;28816;49.852;18.282;2022-07-04T22:39:29;4.580000;;4.550000;4.350000;;;;;;
43196;SPS30;28816;49.852;18.282;2022-07-04T22:44:32;4.290000;;4.270000;4.090000;;;;;;
43196;SPS30;28816;49.852;18.282;2022-07-04T22:49:34;4.410000;;4.410000;4.170000;;;;;;
43196;SPS30;28816;49.852;18.282;2022-07-04T22:54:36;4.460000;;4.490000;4.210000;;;;;;
43196;SPS30;28816;49.852;18.282;2022-07-04T22:59:39;3.930000;;3.950000;3.720000;;;;;;
43196;SPS30;28816;49.852;18.282;2022-07-04T23:04:40;4.420000;;4.440000;4.180000;;;;;;
43196;SPS30;28816;49.852;18.282;2022-07-04T23:09:43;4.750000;;4.730000;4.490000;;;;;;